sensor_id;sensor_type;location;lat;lon;timestamp;pressure;altitude;pressure_sealevel;temperature;humidity
24336;BME280;33098;52.400;16.880;2023-02-15T00:00:26;102549.16;;;1.70;80.17
24336;BME280;33098;52.400;16.880;2023-02-15T00:03:16;102554.33;;;1.57;80.25
24336;BME280;33098;52.400;16.880;2023-02-15T00:05:43;102558.38;;;1.56;80.34
24336;BME280;33098;52.400;16.880;2023-02-15T00:08:10;102559.05;;;1.58;80.59
24336;BME280;33098;52.400;16.880;2023-02-15T00:10:37;102556.24;;;1.60;80.66
24336;BME280;33098;52.400;16.880;2023-02-15T00:13:05;102554.14;;;1.61;80.60
24336;BME280;33098;52.400;16.880;2023-02-15T00:15:32;102557.88;;;1.51;80.35
24336;BME280;33098;52.400;16.880;2023-02-15T00:18:00;102558.34;;;1.35;80.07
24336;BME280;33098;52.400;16.880;2023-02-15T00:20:27;102555.09;;;1.22;80.21
24336;BME280;33098;52.400;16.880;2023-02-15T00:23:02;102556.29;;;1.24;80.71
24336;BME280;33098;52.400;16.880;2023-02-15T00:25:30;102552.77;;;1.28;80.88
24336;BME280;33098;52.400;16.880;2023-02-15T00:28:00;102548.40;;;1.27;80.67
24336;BME280;33098;52.400;16.880;2023-02-15T00:30:29;102546.34;;;1.24;80.73
24336;BME280;33098;52.400;16.880;2023-02-15T00:32:58;102543.39;;;1.17;80.89
24336;BME280;33098;52.400;16.880;2023-02-15T00:35:26;102538.16;;;1.15;81.03
24336;BME280;33098;52.400;16.880;2023-02-15T00:37:56;102538.16;;;1.12;80.86
24336;BME280;33098;52.400;16.880;2023-02-15T00:40:29;102539.48;;;0.96;80.89
24336;BME280;33098;52.400;16.880;2023-02-15T00:43:03;102535.15;;;0.86;81.03
24336;BME280;33098;52.400;16.880;2023-02-15T00:45:34;102533.41;;;0.83;81.29
24336;BME280;33098;52.400;16.880;2023-02-15T00:48:11;102529.56;;;0.85;81.46
24336;BME280;33098;52.400;16.880;2023-02-15T00:50:56;102527.65;;;0.86;81.58
24336;BME280;33098;52.400;16.880;2023-02-15T00:53:36;102524.67;;;0.86;81.71
24336;BME280;33098;52.400;16.880;2023-02-15T00:56:08;102522.35;;;0.93;81.93
24336;BME280;33098;52.400;16.880;2023-02-15T00:58:44;102524.94;;;1.02;81.99
24336;BME280;33098;52.400;16.880;2023-02-15T01:01:20;102521.71;;;1.16;82.20
24336;BME280;33098;52.400;16.880;2023-02-15T01:03:47;102521.02;;;1.15;81.79
24336;BME280;33098;52.400;16.880;2023-02-15T01:06:16;102523.00;;;1.04;81.63
24336;BME280;33098;52.400;16.880;2023-02-15T01:08:44;102517.79;;;0.97;81.77
24336;BME280;33098;52.400;16.880;2023-02-15T01:11:19;102513.95;;;0.95;81.80
24336;BME280;33098;52.400;16.880;2023-02-15T01:13:54;102511.17;;;0.93;81.83
24336;BME280;33098;52.400;16.880;2023-02-15T01:16:22;102511.04;;;0.84;81.51
24336;BME280;33098;52.400;16.880;2023-02-15T01:18:50;102507.59;;;0.72;81.59
24336;BME280;33098;52.400;16.880;2023-02-15T01:21:19;102506.75;;;0.68;81.80
24336;BME280;33098;52.400;16.880;2023-02-15T01:23:49;102510.80;;;0.59;81.86
24336;BME280;33098;52.400;16.880;2023-02-15T01:26:16;102511.48;;;0.60;82.29
24336;BME280;33098;52.400;16.880;2023-02-15T01:28:44;102510.80;;;0.58;82.20
24336;BME280;33098;52.400;16.880;2023-02-15T01:31:15;102514.15;;;0.50;82.29
24336;BME280;33098;52.400;16.880;2023-02-15T01:33:46;102505.27;;;0.41;82.32
24336;BME280;33098;52.400;16.880;2023-02-15T01:36:14;102508.40;;;0.46;82.62
24336;BME280;33098;52.400;16.880;2023-02-15T01:38:41;102507.45;;;0.67;83.26
24336;BME280;33098;52.400;16.880;2023-02-15T01:41:08;102499.20;;;0.73;83.06
24336;BME280;33098;52.400;16.880;2023-02-15T01:43:59;102492.91;;;0.71;83.05
24336;BME280;33098;52.400;16.880;2023-02-15T01:46:35;102489.28;;;0.65;82.77
24336;BME280;33098;52.400;16.880;2023-02-15T01:49:11;102487.72;;;0.61;82.72
24336;BME280;33098;52.400;16.880;2023-02-15T01:51:42;102488.08;;;0.61;82.88
24336;BME280;33098;52.400;16.880;2023-02-15T01:54:23;102485.93;;;0.73;83.07
24336;BME280;33098;52.400;16.880;2023-02-15T01:57:03;102481.16;;;0.82;82.94
24336;BME280;33098;52.400;16.880;2023-02-15T01:59:39;102483.10;;;0.81;82.82
24336;BME280;33098;52.400;16.880;2023-02-15T02:02:09;102485.21;;;0.75;82.50
24336;BME280;33098;52.400;16.880;2023-02-15T02:07:37;102475.56;;;0.82;82.69
24336;BME280;33098;52.400;16.880;2023-02-15T02:10:10;102470.91;;;0.69;82.43
24336;BME280;33098;52.400;16.880;2023-02-15T02:12:40;102471.65;;;0.61;82.31
24336;BME280;33098;52.400;16.880;2023-02-15T02:15:10;102468.52;;;0.57;82.14
24336;BME280;33098;52.400;16.880;2023-02-15T02:23:26;102455.73;;;0.63;82.87
24336;BME280;33098;52.400;16.880;2023-02-15T02:26:37;102452.54;;;0.74;83.13
24336;BME280;33098;52.400;16.880;2023-02-15T02:29:22;102454.91;;;0.86;83.06
24336;BME280;33098;52.400;16.880;2023-02-15T02:34:56;102448.70;;;0.72;82.63
24336;BME280;33098;52.400;16.880;2023-02-15T02:42:46;102444.20;;;0.62;82.63
24336;BME280;33098;52.400;16.880;2023-02-15T02:45:31;102442.45;;;0.63;82.63
24336;BME280;33098;52.400;16.880;2023-02-15T02:48:10;102437.40;;;0.61;82.85
24336;BME280;33098;52.400;16.880;2023-02-15T02:50:41;102427.76;;;0.65;83.00
24336;BME280;33098;52.400;16.880;2023-02-15T02:53:10;102424.95;;;0.69;82.85
24336;BME280;33098;52.400;16.880;2023-02-15T02:55:46;102420.44;;;0.63;82.78
24336;BME280;33098;52.400;16.880;2023-02-15T03:04:09;102425.88;;;0.22;82.31
24336;BME280;33098;52.400;16.880;2023-02-15T03:06:51;102417.48;;;0.18;82.67
24336;BME280;33098;52.400;16.880;2023-02-15T03:09:52;102415.95;;;0.09;82.60
24336;BME280;33098;52.400;16.880;2023-02-15T03:12:30;102413.34;;;0.04;82.81
24336;BME280;33098;52.400;16.880;2023-02-15T03:15:29;102414.40;;;0.04;83.03
24336;BME280;33098;52.400;16.880;2023-02-15T03:18:23;102414.20;;;0.12;83.58
24336;BME280;33098;52.400;16.880;2023-02-15T03:20:54;102410.51;;;0.20;83.71
24336;BME280;33098;52.400;16.880;2023-02-15T03:23:24;102409.10;;;0.20;83.57
24336;BME280;33098;52.400;16.880;2023-02-15T03:26:01;102405.45;;;0.12;83.32
24336;BME280;33098;52.400;16.880;2023-02-15T03:28:38;102407.71;;;0.15;83.56
24336;BME280;33098;52.400;16.880;2023-02-15T03:31:10;102413.13;;;0.20;83.54
24336;BME280;33098;52.400;16.880;2023-02-15T03:33:53;102405.41;;;0.24;83.64
24336;BME280;33098;52.400;16.880;2023-02-15T03:39:24;102399.04;;;0.05;83.59
24336;BME280;33098;52.400;16.880;2023-02-15T03:42:45;102402.70;;;0.02;83.61
24336;BME280;33098;52.400;16.880;2023-02-15T03:45:08;102404.79;;;0.08;83.98
24336;BME280;33098;52.400;16.880;2023-02-15T03:47:40;102403.70;;;0.20;84.23
24336;BME280;33098;52.400;16.880;2023-02-15T03:50:29;102401.58;;;0.24;84.31
24336;BME280;33098;52.400;16.880;2023-02-15T03:53:18;102402.60;;;0.28;84.25
24336;BME280;33098;52.400;16.880;2023-02-15T03:55:49;102394.59;;;0.27;84.28
24336;BME280;33098;52.400;16.880;2023-02-15T03:58:18;102396.68;;;0.25;84.13
24336;BME280;33098;52.400;16.880;2023-02-15T04:01:11;102392.98;;;0.34;84.34
24336;BME280;33098;52.400;16.880;2023-02-15T04:04:11;102388.40;;;0.40;84.34
24336;BME280;33098;52.400;16.880;2023-02-15T04:06:48;102382.27;;;0.45;84.47
24336;BME280;33098;52.400;16.880;2023-02-15T04:09:16;102382.61;;;0.47;84.47
24336;BME280;33098;52.400;16.880;2023-02-15T04:12:03;102383.49;;;0.44;84.26
24336;BME280;33098;52.400;16.880;2023-02-15T04:14:34;102380.71;;;0.43;84.24
24336;BME280;33098;52.400;16.880;2023-02-15T04:17:24;102373.73;;;0.41;84.17
24336;BME280;33098;52.400;16.880;2023-02-15T04:19:51;102370.23;;;0.40;84.17
24336;BME280;33098;52.400;16.880;2023-02-15T04:22:40;102372.34;;;0.41;84.26
24336;BME280;33098;52.400;16.880;2023-02-15T04:25:27;102372.67;;;0.42;84.28
24336;BME280;33098;52.400;16.880;2023-02-15T04:27:54;102366.04;;;0.40;84.33
24336;BME280;33098;52.400;16.880;2023-02-15T04:30:25;102362.38;;;0.41;84.19
24336;BME280;33098;52.400;16.880;2023-02-15T04:32:54;102366.55;;;0.44;84.48
24336;BME280;33098;52.400;16.880;2023-02-15T04:35:25;102367.74;;;0.51;84.52
24336;BME280;33098;52.400;16.880;2023-02-15T04:37:53;102365.11;;;0.52;84.42
24336;BME280;33098;52.400;16.880;2023-02-15T04:40:25;102364.77;;;0.50;84.32
24336;BME280;33098;52.400;16.880;2023-02-15T04:42:53;102362.34;;;0.48;84.38
24336;BME280;33098;52.400;16.880;2023-02-15T04:45:23;102362.70;;;0.48;84.39
24336;BME280;33098;52.400;16.880;2023-02-15T04:47:53;102354.84;;;0.46;84.40
24336;BME280;33098;52.400;16.880;2023-02-15T04:50:38;102351.54;;;0.44;84.23
24336;BME280;33098;52.400;16.880;2023-02-15T04:53:06;102349.80;;;0.42;84.26
24336;BME280;33098;52.400;16.880;2023-02-15T04:55:34;102348.77;;;0.40;84.34
24336;BME280;33098;52.400;16.880;2023-02-15T04:58:04;102352.08;;;0.41;84.56
24336;BME280;33098;52.400;16.880;2023-02-15T05:00:32;102351.88;;;0.45;84.41
24336;BME280;33098;52.400;16.880;2023-02-15T05:03:00;102348.73;;;0.44;84.42
24336;BME280;33098;52.400;16.880;2023-02-15T05:05:30;102353.63;;;0.42;84.42
24336;BME280;33098;52.400;16.880;2023-02-15T05:07:58;102349.59;;;0.45;84.69
24336;BME280;33098;52.400;16.880;2023-02-15T05:10:26;102348.19;;;0.46;84.62
24336;BME280;33098;52.400;16.880;2023-02-15T05:12:55;102348.02;;;0.47;84.59
24336;BME280;33098;52.400;16.880;2023-02-15T05:15:23;102345.52;;;0.55;84.86
24336;BME280;33098;52.400;16.880;2023-02-15T05:17:50;102344.80;;;0.60;84.93
24336;BME280;33098;52.400;16.880;2023-02-15T05:20:18;102344.58;;;0.66;85.02
24336;BME280;33098;52.400;16.880;2023-02-15T05:22:46;102346.60;;;0.75;84.99
24336;BME280;33098;52.400;16.880;2023-02-15T05:25:15;102354.13;;;0.75;84.75
24336;BME280;33098;52.400;16.880;2023-02-15T05:28:04;102355.33;;;0.77;84.99
24336;BME280;33098;52.400;16.880;2023-02-15T05:31:14;102354.14;;;0.73;84.75
24336;BME280;33098;52.400;16.880;2023-02-15T05:33:40;102353.84;;;0.66;84.57
24336;BME280;33098;52.400;16.880;2023-02-15T05:36:18;102346.16;;;0.66;84.94
24336;BME280;33098;52.400;16.880;2023-02-15T05:38:54;102351.65;;;0.79;85.27
24336;BME280;33098;52.400;16.880;2023-02-15T05:41:22;102352.66;;;0.85;85.13
24336;BME280;33098;52.400;16.880;2023-02-15T05:44:00;102351.13;;;0.79;85.04
24336;BME280;33098;52.400;16.880;2023-02-15T05:46:27;102351.39;;;0.91;85.45
24336;BME280;33098;52.400;16.880;2023-02-15T05:48:55;102348.86;;;1.01;85.58
24336;BME280;33098;52.400;16.880;2023-02-15T05:51:25;102351.63;;;1.04;85.23
24336;BME280;33098;52.400;16.880;2023-02-15T05:53:59;102347.22;;;1.08;85.27
24336;BME280;33098;52.400;16.880;2023-02-15T05:56:30;102348.77;;;1.10;85.20
24336;BME280;33098;52.400;16.880;2023-02-15T05:58:57;102345.16;;;1.05;84.78
24336;BME280;33098;52.400;16.880;2023-02-15T06:01:25;102348.38;;;0.96;84.67
24336;BME280;33098;52.400;16.880;2023-02-15T06:03:58;102346.53;;;0.86;84.48
24336;BME280;33098;52.400;16.880;2023-02-15T06:06:31;102348.47;;;0.84;84.64
24336;BME280;33098;52.400;16.880;2023-02-15T06:08:59;102345.36;;;0.77;84.66
24336;BME280;33098;52.400;16.880;2023-02-15T06:11:27;102344.67;;;0.76;84.67
24336;BME280;33098;52.400;16.880;2023-02-15T06:13:55;102342.43;;;0.73;84.61
24336;BME280;33098;52.400;16.880;2023-02-15T06:16:22;102342.62;;;0.72;84.67
24336;BME280;33098;52.400;16.880;2023-02-15T06:18:51;102342.95;;;0.74;85.01
24336;BME280;33098;52.400;16.880;2023-02-15T06:21:19;102344.85;;;0.76;85.17
24336;BME280;33098;52.400;16.880;2023-02-15T06:23:53;102343.58;;;0.84;85.33
24336;BME280;33098;52.400;16.880;2023-02-15T06:26:21;102341.68;;;1.02;85.74
24336;BME280;33098;52.400;16.880;2023-02-15T06:28:48;102341.20;;;1.17;85.68
24336;BME280;33098;52.400;16.880;2023-02-15T06:31:20;102336.42;;;1.24;85.59
24336;BME280;33098;52.400;16.880;2023-02-15T06:33:48;102331.45;;;1.32;85.54
24336;BME280;33098;52.400;16.880;2023-02-15T06:36:15;102332.82;;;1.35;85.36
24336;BME280;33098;52.400;16.880;2023-02-15T06:38:49;102329.46;;;1.38;85.39
24336;BME280;33098;52.400;16.880;2023-02-15T06:41:17;102326.19;;;1.33;85.18
24336;BME280;33098;52.400;16.880;2023-02-15T06:43:44;102327.10;;;1.30;85.06
24336;BME280;33098;52.400;16.880;2023-02-15T06:46:14;102329.20;;;1.30;85.11
24336;BME280;33098;52.400;16.880;2023-02-15T06:48:42;102324.55;;;1.40;85.47
24336;BME280;33098;52.400;16.880;2023-02-15T06:51:14;102328.88;;;1.45;85.29
24336;BME280;33098;52.400;16.880;2023-02-15T06:53:41;102323.93;;;1.49;85.38
24336;BME280;33098;52.400;16.880;2023-02-15T06:56:10;102322.98;;;1.55;85.43
24336;BME280;33098;52.400;16.880;2023-02-15T06:58:39;102321.19;;;1.60;85.40
24336;BME280;33098;52.400;16.880;2023-02-15T07:01:10;102321.84;;;1.65;85.50
24336;BME280;33098;52.400;16.880;2023-02-15T07:03:38;102321.06;;;1.71;85.47
24336;BME280;33098;52.400;16.880;2023-02-15T07:06:04;102321.53;;;1.75;85.39
24336;BME280;33098;52.400;16.880;2023-02-15T07:08:37;102324.83;;;1.79;85.38
24336;BME280;33098;52.400;16.880;2023-02-15T07:11:05;102323.91;;;1.82;85.28
24336;BME280;33098;52.400;16.880;2023-02-15T07:13:51;102318.42;;;1.87;85.24
24336;BME280;33098;52.400;16.880;2023-02-15T07:16:22;102314.77;;;1.85;85.17
24336;BME280;33098;52.400;16.880;2023-02-15T07:18:54;102314.59;;;1.85;85.24
24336;BME280;33098;52.400;16.880;2023-02-15T07:21:21;102311.19;;;1.91;85.32
24336;BME280;33098;52.400;16.880;2023-02-15T07:23:50;102314.35;;;1.91;85.20
24336;BME280;33098;52.400;16.880;2023-02-15T07:26:17;102310.95;;;1.97;85.38
24336;BME280;33098;52.400;16.880;2023-02-15T07:28:44;102304.38;;;2.04;85.48
24336;BME280;33098;52.400;16.880;2023-02-15T07:31:11;102307.08;;;2.11;85.52
24336;BME280;33098;52.400;16.880;2023-02-15T07:33:38;102300.52;;;2.18;85.48
24336;BME280;33098;52.400;16.880;2023-02-15T07:36:07;102294.15;;;2.22;85.64
24336;BME280;33098;52.400;16.880;2023-02-15T07:38:36;102291.74;;;2.31;85.59
24336;BME280;33098;52.400;16.880;2023-02-15T07:41:05;102291.69;;;2.34;85.60
24336;BME280;33098;52.400;16.880;2023-02-15T07:43:33;102290.78;;;2.37;85.34
24336;BME280;33098;52.400;16.880;2023-02-15T07:46:05;102290.00;;;2.42;85.44
24336;BME280;33098;52.400;16.880;2023-02-15T07:48:34;102295.50;;;2.50;85.35
24336;BME280;33098;52.400;16.880;2023-02-15T07:51:02;102297.67;;;2.57;85.30
24336;BME280;33098;52.400;16.880;2023-02-15T07:53:31;102298.13;;;2.62;85.39
24336;BME280;33098;52.400;16.880;2023-02-15T07:55:58;102299.85;;;2.63;85.14
24336;BME280;33098;52.400;16.880;2023-02-15T07:58:27;102294.11;;;2.60;85.06
24336;BME280;33098;52.400;16.880;2023-02-15T08:01:13;102295.10;;;2.64;85.22
24336;BME280;33098;52.400;16.880;2023-02-15T08:03:42;102288.70;;;2.69;85.25
24336;BME280;33098;52.400;16.880;2023-02-15T08:06:10;102284.59;;;2.74;85.34
24336;BME280;33098;52.400;16.880;2023-02-15T08:08:43;102276.08;;;2.81;85.38
24336;BME280;33098;52.400;16.880;2023-02-15T08:11:15;102269.19;;;2.84;85.27
24336;BME280;33098;52.400;16.880;2023-02-15T08:13:52;102271.95;;;2.86;85.43
24336;BME280;33098;52.400;16.880;2023-02-15T08:18:59;102262.90;;;3.02;85.14
24336;BME280;33098;52.400;16.880;2023-02-15T08:21:28;102260.53;;;3.07;84.95
24336;BME280;33098;52.400;16.880;2023-02-15T08:23:56;102252.38;;;3.11;84.85
24336;BME280;33098;52.400;16.880;2023-02-15T08:26:27;102248.30;;;3.15;84.57
24336;BME280;33098;52.400;16.880;2023-02-15T08:28:55;102241.98;;;3.16;84.43
24336;BME280;33098;52.400;16.880;2023-02-15T08:31:26;102241.63;;;3.15;84.26
24336;BME280;33098;52.400;16.880;2023-02-15T08:33:54;102239.62;;;3.19;84.43
24336;BME280;33098;52.400;16.880;2023-02-15T08:36:26;102235.98;;;3.25;84.71
24336;BME280;33098;52.400;16.880;2023-02-15T08:38:57;102237.38;;;3.26;84.60
24336;BME280;33098;52.400;16.880;2023-02-15T08:41:29;102239.21;;;3.31;84.66
24336;BME280;33098;52.400;16.880;2023-02-15T08:44:05;102236.29;;;3.37;84.54
24336;BME280;33098;52.400;16.880;2023-02-15T08:46:34;102233.58;;;3.41;84.38
24336;BME280;33098;52.400;16.880;2023-02-15T08:49:08;102228.77;;;3.45;84.69
24336;BME280;33098;52.400;16.880;2023-02-15T08:51:40;102229.20;;;3.49;84.48
24336;BME280;33098;52.400;16.880;2023-02-15T08:54:11;102232.75;;;3.56;84.59
24336;BME280;33098;52.400;16.880;2023-02-15T08:56:41;102227.80;;;3.58;84.59
24336;BME280;33098;52.400;16.880;2023-02-15T08:59:12;102227.56;;;3.61;84.68
24336;BME280;33098;52.400;16.880;2023-02-15T09:01:47;102227.11;;;3.65;84.89
24336;BME280;33098;52.400;16.880;2023-02-15T09:04:15;102220.61;;;3.74;84.88
24336;BME280;33098;52.400;16.880;2023-02-15T09:06:46;102215.71;;;3.81;84.72
24336;BME280;33098;52.400;16.880;2023-02-15T09:09:15;102213.52;;;3.85;84.80
24336;BME280;33098;52.400;16.880;2023-02-15T09:11:44;102213.27;;;3.89;84.69
24336;BME280;33098;52.400;16.880;2023-02-15T09:14:15;102210.02;;;4.00;85.09
24336;BME280;33098;52.400;16.880;2023-02-15T09:16:45;102212.73;;;4.04;84.71
24336;BME280;33098;52.400;16.880;2023-02-15T09:19:15;102209.86;;;4.07;84.76
24336;BME280;33098;52.400;16.880;2023-02-15T09:21:46;102204.03;;;4.08;84.63
24336;BME280;33098;52.400;16.880;2023-02-15T09:24:16;102208.13;;;4.14;84.83
24336;BME280;33098;52.400;16.880;2023-02-15T09:26:44;102206.33;;;4.23;84.80
24336;BME280;33098;52.400;16.880;2023-02-15T09:29:12;102199.63;;;4.24;84.74
24336;BME280;33098;52.400;16.880;2023-02-15T09:31:40;102199.24;;;4.33;85.02
24336;BME280;33098;52.400;16.880;2023-02-15T09:34:13;102193.44;;;4.39;84.86
24336;BME280;33098;52.400;16.880;2023-02-15T09:36:42;102193.88;;;4.37;84.36
24336;BME280;33098;52.400;16.880;2023-02-15T09:39:14;102196.09;;;4.32;84.22
24336;BME280;33098;52.400;16.880;2023-02-15T09:55:12;102176.42;;;4.73;84.33
24336;BME280;33098;52.400;16.880;2023-02-15T10:00:43;102163.05;;;4.86;84.11
24336;BME280;33098;52.400;16.880;2023-02-15T10:03:23;102163.27;;;4.91;84.24
24336;BME280;33098;52.400;16.880;2023-02-15T10:05:57;102158.73;;;5.02;84.24
24336;BME280;33098;52.400;16.880;2023-02-15T10:14:13;102150.30;;;5.09;83.72
24336;BME280;33098;52.400;16.880;2023-02-15T10:21:58;102146.73;;;5.16;83.49
24336;BME280;33098;52.400;16.880;2023-02-15T10:24:41;102142.48;;;5.23;83.45
24336;BME280;33098;52.400;16.880;2023-02-15T10:27:12;102138.44;;;5.30;83.39
24336;BME280;33098;52.400;16.880;2023-02-15T10:30:27;102132.89;;;5.27;83.17
24336;BME280;33098;52.400;16.880;2023-02-15T10:32:32;102126.65;;;5.35;83.29
24336;BME280;33098;52.400;16.880;2023-02-15T10:35:09;102122.82;;;5.51;83.66
24336;BME280;33098;52.400;16.880;2023-02-15T10:55:54;102107.73;;;6.32;82.70
24336;BME280;33098;52.400;16.880;2023-02-15T11:01:18;102096.50;;;6.67;82.41
24336;BME280;33098;52.400;16.880;2023-02-15T11:06:15;102088.98;;;6.89;81.65
24336;BME280;33098;52.400;16.880;2023-02-15T11:08:48;102082.51;;;7.02;81.55
24336;BME280;33098;52.400;16.880;2023-02-15T11:11:25;102077.72;;;7.17;81.43
24336;BME280;33098;52.400;16.880;2023-02-15T11:14:13;102076.98;;;7.27;81.09
24336;BME280;33098;52.400;16.880;2023-02-15T11:16:43;102074.87;;;7.41;80.81
24336;BME280;33098;52.400;16.880;2023-02-15T11:19:24;102072.36;;;7.55;80.57
24336;BME280;33098;52.400;16.880;2023-02-15T11:21:55;102074.84;;;7.55;79.00
24336;BME280;33098;52.400;16.880;2023-02-15T11:24:26;102071.24;;;7.52;78.65
24336;BME280;33098;52.400;16.880;2023-02-15T11:27:02;102070.40;;;7.46;77.99
24336;BME280;33098;52.400;16.880;2023-02-15T11:29:37;102067.71;;;7.52;78.27
24336;BME280;33098;52.400;16.880;2023-02-15T11:32:13;102064.03;;;7.64;78.56
24336;BME280;33098;52.400;16.880;2023-02-15T11:37:16;102061.03;;;8.03;79.17
24336;BME280;33098;52.400;16.880;2023-02-15T11:39:51;102063.82;;;8.21;79.03
24336;BME280;33098;52.400;16.880;2023-02-15T11:42:28;102053.35;;;8.30;77.25
24336;BME280;33098;52.400;16.880;2023-02-15T11:45:25;102055.54;;;8.28;76.87
24336;BME280;33098;52.400;16.880;2023-02-15T11:47:50;102050.31;;;8.34;77.04
24336;BME280;33098;52.400;16.880;2023-02-15T11:50:22;102053.89;;;8.59;77.88
24336;BME280;33098;52.400;16.880;2023-02-15T11:52:57;102047.48;;;8.83;77.85
24336;BME280;33098;52.400;16.880;2023-02-15T11:55:28;102043.30;;;8.97;76.77
24336;BME280;33098;52.400;16.880;2023-02-15T12:00:51;102038.48;;;9.10;76.25
24336;BME280;33098;52.400;16.880;2023-02-15T12:03:23;102038.46;;;9.18;75.56
24336;BME280;33098;52.400;16.880;2023-02-15T12:06:03;102037.71;;;9.26;75.73
24336;BME280;33098;52.400;16.880;2023-02-15T12:08:38;102027.91;;;9.46;76.25
24336;BME280;33098;52.400;16.880;2023-02-15T12:11:08;102024.17;;;9.64;75.98
24336;BME280;33098;52.400;16.880;2023-02-15T12:16:26;102021.15;;;9.96;76.10
24336;BME280;33098;52.400;16.880;2023-02-15T12:19:01;102016.64;;;10.05;74.26
24336;BME280;33098;52.400;16.880;2023-02-15T12:21:33;102019.33;;;9.98;74.01
24336;BME280;33098;52.400;16.880;2023-02-15T12:24:09;102010.52;;;10.14;74.44
24336;BME280;33098;52.400;16.880;2023-02-15T12:26:38;102011.57;;;10.24;73.25
24336;BME280;33098;52.400;16.880;2023-02-15T12:29:15;102009.30;;;10.27;73.80
24336;BME280;33098;52.400;16.880;2023-02-15T12:31:46;102004.33;;;10.48;73.97
24336;BME280;33098;52.400;16.880;2023-02-15T12:34:20;101998.38;;;10.59;73.10
24336;BME280;33098;52.400;16.880;2023-02-15T12:36:55;101995.96;;;10.68;73.17
24336;BME280;33098;52.400;16.880;2023-02-15T12:39:27;101991.45;;;10.73;71.72
24336;BME280;33098;52.400;16.880;2023-02-15T12:41:59;101995.50;;;10.80;72.82
24336;BME280;33098;52.400;16.880;2023-02-15T12:44:27;101987.80;;;11.01;73.25
24336;BME280;33098;52.400;16.880;2023-02-15T12:46:57;101987.17;;;11.21;72.92
24336;BME280;33098;52.400;16.880;2023-02-15T12:49:28;101982.64;;;11.36;72.80
24336;BME280;33098;52.400;16.880;2023-02-15T12:51:56;101979.23;;;11.48;72.59
24336;BME280;33098;52.400;16.880;2023-02-15T12:55:27;101980.18;;;11.50;71.91
24336;BME280;33098;52.400;16.880;2023-02-15T12:58:08;101977.92;;;11.59;71.28
24336;BME280;33098;52.400;16.880;2023-02-15T13:00:37;101979.05;;;11.67;71.32
24336;BME280;33098;52.400;16.880;2023-02-15T13:03:19;101976.51;;;11.74;70.37
24336;BME280;33098;52.400;16.880;2023-02-15T13:05:51;101970.58;;;11.60;68.81
24336;BME280;33098;52.400;16.880;2023-02-15T13:08:23;101965.58;;;11.45;68.53
24336;BME280;33098;52.400;16.880;2023-02-15T13:11:06;101964.48;;;11.33;68.01
24336;BME280;33098;52.400;16.880;2023-02-15T13:14:00;101962.15;;;11.37;68.61
24336;BME280;33098;52.400;16.880;2023-02-15T13:16:31;101957.79;;;11.35;68.61
24336;BME280;33098;52.400;16.880;2023-02-15T13:19:06;101958.35;;;11.47;68.73
24336;BME280;33098;52.400;16.880;2023-02-15T13:21:47;101956.52;;;11.54;68.24
24336;BME280;33098;52.400;16.880;2023-02-15T13:24:34;101958.02;;;11.37;68.13
24336;BME280;33098;52.400;16.880;2023-02-15T13:27:04;101954.27;;;11.40;68.71
24336;BME280;33098;52.400;16.880;2023-02-15T13:29:38;101953.67;;;11.48;68.36
24336;BME280;33098;52.400;16.880;2023-02-15T13:32:38;101949.98;;;11.22;67.52
24336;BME280;33098;52.400;16.880;2023-02-15T13:35:14;101941.11;;;11.03;66.95
24336;BME280;33098;52.400;16.880;2023-02-15T13:40:41;101937.64;;;10.76;67.64
24336;BME280;33098;52.400;16.880;2023-02-15T13:43:46;101935.34;;;10.76;67.72
24336;BME280;33098;52.400;16.880;2023-02-15T13:46:45;101935.07;;;10.74;67.70
24336;BME280;33098;52.400;16.880;2023-02-15T13:52:21;101940.77;;;10.52;66.73
24336;BME280;33098;52.400;16.880;2023-02-15T14:00:48;101938.51;;;10.07;67.34
24336;BME280;33098;52.400;16.880;2023-02-15T14:14:11;101917.75;;;9.76;67.18
24336;BME280;33098;52.400;16.880;2023-02-15T14:19:44;101909.69;;;9.67;67.43
24336;BME280;33098;52.400;16.880;2023-02-15T14:30:36;101909.62;;;9.58;67.42
24336;BME280;33098;52.400;16.880;2023-02-15T14:36:16;101896.86;;;9.51;67.37
24336;BME280;33098;52.400;16.880;2023-02-15T14:39:06;101902.34;;;9.48;67.72
24336;BME280;33098;52.400;16.880;2023-02-15T14:42:34;101906.39;;;9.52;67.87
24336;BME280;33098;52.400;16.880;2023-02-15T14:45:17;101902.06;;;9.50;67.55
24336;BME280;33098;52.400;16.880;2023-02-15T14:48:02;101905.94;;;9.43;67.63
24336;BME280;33098;52.400;16.880;2023-02-15T14:50:44;101906.71;;;9.45;67.66
24336;BME280;33098;52.400;16.880;2023-02-15T14:53:37;101909.27;;;9.41;67.28
24336;BME280;33098;52.400;16.880;2023-02-15T14:56:17;101909.43;;;9.27;67.21
24336;BME280;33098;52.400;16.880;2023-02-15T15:01:32;101906.45;;;9.15;67.35
24336;BME280;33098;52.400;16.880;2023-02-15T15:04:22;101900.91;;;9.12;67.54
24336;BME280;33098;52.400;16.880;2023-02-15T15:07:08;101894.23;;;9.08;67.56
24336;BME280;33098;52.400;16.880;2023-02-15T15:09:41;101889.77;;;9.12;67.70
24336;BME280;33098;52.400;16.880;2023-02-15T15:14:54;101880.95;;;9.04;67.61
24336;BME280;33098;52.400;16.880;2023-02-15T15:22:31;101873.48;;;8.90;67.51
24336;BME280;33098;52.400;16.880;2023-02-15T15:25:03;101875.01;;;8.84;67.58
24336;BME280;33098;52.400;16.880;2023-02-15T15:35:55;101867.23;;;8.58;67.96
24336;BME280;33098;52.400;16.880;2023-02-15T15:41:19;101865.02;;;8.56;68.13
24336;BME280;33098;52.400;16.880;2023-02-15T15:44:08;101862.98;;;8.58;68.23
24336;BME280;33098;52.400;16.880;2023-02-15T15:49:38;101863.19;;;8.57;68.24
24336;BME280;33098;52.400;16.880;2023-02-15T15:52:17;101858.40;;;8.57;68.27